createdAt,value
2022-11-08T00:01:44.752Z,93.70
2022-11-08T00:04:13.843Z,93.40
2022-11-08T00:07:00.372Z,93.40
2022-11-08T00:09:46.662Z,93.40
2022-11-08T00:12:32.871Z,93.40
2022-11-08T00:15:00.781Z,93.40
2022-11-08T00:17:30.975Z,93.50
2022-11-08T00:20:01.597Z,93.50
2022-11-08T00:22:34.860Z,93.50
2022-11-08T00:25:02.202Z,93.50
2022-11-08T00:27:29.464Z,93.60
2022-11-08T00:29:57.094Z,93.60
2022-11-08T00:32:26.578Z,93.60
2022-11-08T00:34:56.561Z,93.60
2022-11-08T00:37:23.956Z,93.60
2022-11-08T00:39:55.005Z,93.60
2022-11-08T00:42:21.999Z,93.70
2022-11-08T00:44:49.355Z,93.70
2022-11-08T00:47:16.386Z,93.80
2022-11-08T00:49:44.012Z,93.80
2022-11-08T00:52:14.084Z,93.90
2022-11-08T00:54:41.407Z,93.90
2022-11-08T00:57:08.632Z,93.90
2022-11-08T00:59:36.091Z,94.00
2022-11-08T01:02:06.125Z,94.30
2022-11-08T01:04:35.736Z,94.00
2022-11-08T01:07:05.418Z,94.00
2022-11-08T01:09:32.447Z,94.00
2022-11-08T01:11:59.457Z,94.00
2022-11-08T01:14:26.400Z,94.00
2022-11-08T01:16:53.337Z,94.00
2022-11-08T01:19:20.387Z,94.10
2022-11-08T01:21:47.428Z,94.10
2022-11-08T01:24:14.467Z,94.10
2022-11-08T01:26:41.441Z,94.20
2022-11-08T01:29:08.355Z,94.20
2022-11-08T01:31:35.324Z,94.20
2022-11-08T01:34:03.071Z,94.20
2022-11-08T01:36:30.345Z,94.20
2022-11-08T01:38:57.647Z,94.20
2022-11-08T01:41:26.449Z,94.20
2022-11-08T01:43:56.099Z,94.20
2022-11-08T01:46:28.969Z,94.30
2022-11-08T01:49:28.251Z,94.30
2022-11-08T01:52:30.758Z,94.30
2022-11-08T01:55:26.891Z,94.40
2022-11-08T01:58:07.787Z,94.40
2022-11-08T02:00:37.467Z,94.40
2022-11-08T02:03:07.376Z,94.50
2022-11-08T02:05:37.571Z,94.50
2022-11-08T02:08:19.511Z,94.60
2022-11-08T02:10:49.901Z,94.60
2022-11-08T02:13:24.405Z,94.60
2022-11-08T02:15:51.753Z,94.60
2022-11-08T02:18:21.475Z,94.70
2022-11-08T02:21:00.516Z,94.70
2022-11-08T02:23:47.734Z,94.70
2022-11-08T02:26:16.490Z,94.70
2022-11-08T02:28:45.539Z,94.70
2022-11-08T02:31:14.429Z,94.80
2022-11-08T02:33:42.092Z,94.80
2022-11-08T02:36:14.567Z,94.80
2022-11-08T02:38:46.926Z,94.80
2022-11-08T02:41:13.922Z,94.80
2022-11-08T02:43:40.908Z,94.80
2022-11-08T02:46:08.024Z,94.80
2022-11-08T02:48:34.941Z,94.80
2022-11-08T02:51:01.902Z,94.80
2022-11-08T02:53:28.852Z,94.90
2022-11-08T02:55:55.961Z,94.80
2022-11-08T02:58:23.577Z,94.90
2022-11-08T03:00:50.647Z,94.80
2022-11-08T03:03:17.535Z,94.80
2022-11-08T03:05:44.638Z,94.80
2022-11-08T03:08:11.681Z,94.80
2022-11-08T03:10:38.635Z,94.80
2022-11-08T03:13:06.369Z,94.90
2022-11-08T03:15:33.593Z,94.90
2022-11-08T03:18:02.191Z,94.80
2022-11-08T03:20:32.893Z,94.80
2022-11-08T03:23:02.133Z,94.80
2022-11-08T03:25:29.980Z,94.90
2022-11-08T03:28:05.196Z,94.90
2022-11-08T03:30:32.901Z,94.90
2022-11-08T03:32:59.833Z,94.90
2022-11-08T03:35:26.812Z,94.90
2022-11-08T03:37:55.961Z,94.90
2022-11-08T03:40:23.874Z,95.00
2022-11-08T03:42:50.821Z,94.90
2022-11-08T03:45:18.033Z,94.90
2022-11-08T03:47:46.743Z,95.00
2022-11-08T03:50:16.077Z,94.90
2022-11-08T03:52:54.897Z,95.00
2022-11-08T03:55:24.415Z,94.90
2022-11-08T03:57:52.703Z,94.90
2022-11-08T04:00:22.477Z,94.90
2022-11-08T04:02:50.145Z,95.00
2022-11-08T04:05:20.773Z,95.00
2022-11-08T04:07:47.938Z,95.00
2022-11-08T04:10:14.915Z,95.10
2022-11-08T04:13:01.166Z,95.10
2022-11-08T04:15:30.438Z,95.10
2022-11-08T04:18:16.867Z,95.10
2022-11-08T04:21:04.996Z,95.10
2022-11-08T04:23:34.588Z,95.10
2022-11-08T04:26:04.179Z,95.10
2022-11-08T04:28:32.838Z,95.10
2022-11-08T04:31:03.492Z,95.10
2022-11-08T04:33:31.070Z,95.00
2022-11-08T04:36:08.292Z,95.10
2022-11-08T04:38:35.471Z,95.10
2022-11-08T04:41:22.781Z,95.10
2022-11-08T04:43:51.507Z,95.10
2022-11-08T04:46:21.203Z,95.00
2022-11-08T04:48:50.948Z,95.00
2022-11-08T04:51:20.192Z,95.00
2022-11-08T04:53:47.601Z,95.00
2022-11-08T04:56:17.244Z,95.00
2022-11-08T04:58:46.162Z,95.00
2022-11-08T05:01:18.968Z,95.00
2022-11-08T05:03:47.428Z,95.10
2022-11-08T05:06:20.434Z,95.10
2022-11-08T05:08:47.590Z,95.00
2022-11-08T05:11:20.586Z,95.00
2022-11-08T05:13:48.482Z,95.00
2022-11-08T05:16:18.174Z,95.00
2022-11-08T05:18:45.539Z,95.00
2022-11-08T05:21:33.519Z,95.00
2022-11-08T05:24:01.204Z,95.00
2022-11-08T05:26:29.061Z,95.00
2022-11-08T05:28:56.267Z,95.00
2022-11-08T05:31:25.968Z,94.90
2022-11-08T05:33:53.016Z,95.00
2022-11-08T05:36:20.344Z,95.00
2022-11-08T05:38:47.343Z,95.00
2022-11-08T05:41:17.041Z,94.90
2022-11-08T05:43:46.914Z,94.90
2022-11-08T05:46:14.724Z,94.90
2022-11-08T05:48:46.947Z,95.00
2022-11-08T05:51:15.247Z,95.00
2022-11-08T05:53:42.476Z,95.00
2022-11-08T05:56:09.857Z,95.00
2022-11-08T05:58:37.245Z,94.90
2022-11-08T06:01:09.492Z,94.90
2022-11-08T06:03:37.125Z,94.80
2022-11-08T06:06:10.053Z,94.80
2022-11-08T06:08:37.644Z,94.80
2022-11-08T06:11:06.450Z,94.80
2022-11-08T06:13:34.380Z,94.80
2022-11-08T06:16:03.092Z,94.80
2022-11-08T06:18:31.620Z,94.80
2022-11-08T06:21:03.100Z,94.80
2022-11-08T06:23:33.252Z,94.80
2022-11-08T06:26:00.940Z,94.80
2022-11-08T06:28:28.192Z,94.80
2022-11-08T06:30:57.919Z,94.80
2022-11-08T06:33:25.356Z,94.80
2022-11-08T06:35:52.637Z,94.70
2022-11-08T06:38:19.491Z,94.70
2022-11-08T06:40:46.494Z,94.70
2022-11-08T06:43:19.041Z,94.80
2022-11-08T06:45:46.956Z,94.70
2022-11-08T06:48:13.915Z,94.70
2022-11-08T06:50:44.667Z,94.70
2022-11-08T06:53:13.331Z,94.70
2022-11-08T06:55:40.744Z,94.60
2022-11-08T06:58:07.746Z,94.60
2022-11-08T07:00:34.895Z,94.60
2022-11-08T07:03:03.629Z,94.50
2022-11-08T07:05:33.130Z,94.50
2022-11-08T07:08:01.948Z,94.50
2022-11-08T07:10:31.127Z,94.50
2022-11-08T07:13:14.231Z,94.50
2022-11-08T07:15:42.349Z,94.50
2022-11-08T07:18:11.950Z,94.50
2022-11-08T07:20:39.684Z,94.50
2022-11-08T07:23:06.947Z,94.50
2022-11-08T07:25:34.574Z,94.50
2022-11-08T07:28:04.806Z,94.50
2022-11-08T07:30:33.103Z,94.40
2022-11-08T07:33:00.006Z,94.40
2022-11-08T07:35:28.261Z,94.40
2022-11-08T07:37:55.982Z,94.40
2022-11-08T07:40:23.075Z,94.40
2022-11-08T07:43:10.473Z,94.40
2022-11-08T07:45:37.607Z,94.40
2022-11-08T07:48:11.420Z,94.30
2022-11-08T07:50:41.190Z,94.40
2022-11-08T07:53:08.605Z,94.20
2022-11-08T07:55:40.160Z,94.20
2022-11-08T07:58:09.908Z,94.10
2022-11-08T08:00:39.049Z,94.10
2022-11-08T08:03:09.074Z,94.10
2022-11-08T08:05:38.784Z,94.00
2022-11-08T08:08:06.176Z,94.00
2022-11-08T08:10:34.088Z,93.90
2022-11-08T08:13:01.783Z,93.80
2022-11-08T08:15:28.807Z,93.80
2022-11-08T08:17:55.868Z,93.80
2022-11-08T08:20:24.046Z,93.70
2022-11-08T08:22:52.457Z,93.70
2022-11-08T08:25:20.047Z,93.70
2022-11-08T08:27:52.040Z,93.60
2022-11-08T08:30:19.802Z,93.60
2022-11-08T08:33:02.119Z,93.50
2022-11-08T08:35:36.983Z,93.50
2022-11-08T08:38:05.159Z,93.40
2022-11-08T08:40:35.344Z,93.30
2022-11-08T08:43:05.089Z,93.20
2022-11-08T08:45:33.564Z,93.10
2022-11-08T08:48:01.753Z,93.00
2022-11-08T08:50:31.152Z,92.90
2022-11-08T08:53:04.151Z,92.70
2022-11-08T08:55:31.649Z,92.60
2022-11-08T08:57:58.851Z,92.50
2022-11-08T09:03:13.989Z,92.30
2022-11-08T09:05:43.874Z,92.20
2022-11-08T09:08:11.450Z,92.20
2022-11-08T09:10:38.773Z,91.70
2022-11-08T09:13:06.129Z,91.20
2022-11-08T09:15:33.584Z,91.10
2022-11-08T09:18:00.964Z,91.20
2022-11-08T09:20:30.225Z,91.10
2022-11-08T09:23:02.852Z,90.90
2022-11-08T09:25:30.123Z,90.90
2022-11-08T09:27:57.108Z,90.70
2022-11-08T09:30:24.355Z,90.70
2022-11-08T09:33:02.958Z,90.70
2022-11-08T09:35:34.318Z,90.40
2022-11-08T09:38:01.352Z,90.50
2022-11-08T09:40:37.328Z,90.40
2022-11-08T09:43:27.569Z,90.40
2022-11-08T09:45:57.517Z,90.10
2022-11-08T09:48:38.850Z,90.20
2022-11-08T09:51:18.624Z,90.00
2022-11-08T09:53:57.747Z,89.90
2022-11-08T09:56:35.015Z,90.00
2022-11-08T09:59:04.864Z,90.00
2022-11-08T10:01:34.737Z,89.90
2022-11-08T10:04:23.569Z,89.70
2022-11-08T10:07:02.505Z,89.70
2022-11-08T10:09:54.375Z,89.60
2022-11-08T10:12:30.433Z,89.60
2022-11-08T10:15:06.591Z,89.50
2022-11-08T10:17:39.775Z,89.50
2022-11-08T10:20:25.110Z,89.40
2022-11-08T10:23:07.564Z,88.80
2022-11-08T10:25:42.439Z,88.90
2022-11-08T10:28:32.919Z,89.00
2022-11-08T10:31:00.229Z,89.00
2022-11-08T10:33:42.066Z,88.10
2022-11-08T10:36:24.245Z,87.90
2022-11-08T10:39:09.113Z,88.00
2022-11-08T10:42:13.749Z,88.00
2022-11-08T10:44:42.336Z,87.80
2022-11-08T10:47:20.269Z,87.20
2022-11-08T10:49:47.439Z,87.00
2022-11-08T10:52:17.248Z,86.90
2022-11-08T10:54:53.473Z,86.80
2022-11-08T10:57:27.735Z,86.70
2022-11-08T10:59:56.518Z,86.00
2022-11-08T11:02:28.386Z,85.80
2022-11-08T11:05:33.029Z,86.40
2022-11-08T11:08:09.196Z,86.40
2022-11-08T11:10:41.892Z,86.60
2022-11-08T11:13:19.221Z,86.80
2022-11-08T11:15:54.088Z,86.60
2022-11-08T11:18:34.446Z,86.80
2022-11-08T11:21:24.409Z,86.80
2022-11-08T11:23:53.769Z,86.40
2022-11-08T11:26:29.736Z,86.70
2022-11-08T11:29:07.649Z,86.60
2022-11-08T11:31:43.374Z,85.70
2022-11-08T11:34:19.555Z,85.80
2022-11-08T11:36:51.428Z,85.80
2022-11-08T11:39:42.628Z,85.80
2022-11-08T11:42:43.813Z,85.80
2022-11-08T11:45:17.029Z,85.90
2022-11-08T11:47:48.012Z,85.80
2022-11-08T11:50:38.656Z,85.60
2022-11-08T11:53:12.980Z,85.70
2022-11-08T11:56:08.324Z,85.30
2022-11-08T11:58:51.970Z,85.20
2022-11-08T12:01:36.930Z,85.20
2022-11-08T12:04:37.207Z,85.00
2022-11-08T12:07:18.871Z,85.00
2022-11-08T12:10:03.471Z,84.60
2022-11-08T12:12:49.363Z,84.30
2022-11-08T12:15:23.262Z,84.10
2022-11-08T12:18:41.065Z,83.70
2022-11-08T12:21:39.144Z,84.20
2022-11-08T12:24:15.129Z,83.10
2022-11-08T12:27:11.436Z,83.20
2022-11-08T12:29:51.324Z,83.30
2022-11-08T12:32:34.986Z,83.20
2022-11-08T12:35:11.398Z,83.00
2022-11-08T12:37:47.529Z,82.10
2022-11-08T12:45:43.485Z,82.60
2022-11-08T12:49:00.734Z,82.60
2022-11-08T12:52:11.604Z,82.80
2022-11-08T12:55:04.155Z,83.10
2022-11-08T12:58:21.600Z,83.50
2022-11-08T13:01:10.849Z,83.60
2022-11-08T13:03:47.042Z,83.50
2022-11-08T13:06:41.748Z,83.50
2022-11-08T13:09:34.252Z,83.60
2022-11-08T13:12:26.098Z,83.70
2022-11-08T13:14:53.619Z,83.90
2022-11-08T13:17:26.545Z,84.20
2022-11-08T13:20:04.826Z,84.00
2022-11-08T13:22:35.281Z,83.90
2022-11-08T13:25:08.857Z,83.70
2022-11-08T13:27:43.493Z,83.70
2022-11-08T13:30:35.655Z,83.80
2022-11-08T13:33:29.130Z,83.70
2022-11-08T13:36:33.745Z,83.70
2022-11-08T13:39:38.652Z,83.60
2022-11-08T13:42:31.733Z,83.60
2022-11-08T13:45:11.443Z,83.50
2022-11-08T13:47:40.243Z,83.60
2022-11-08T13:50:35.359Z,83.60
2022-11-08T13:53:25.747Z,83.50
2022-11-08T13:55:57.855Z,83.60
2022-11-08T13:58:43.720Z,83.20
2022-11-08T14:01:22.938Z,82.70
2022-11-08T14:03:55.401Z,82.80
2022-11-08T14:06:32.466Z,82.90
2022-11-08T14:09:30.701Z,82.60
2022-11-08T14:12:15.397Z,82.50
2022-11-08T14:14:45.374Z,82.60
2022-11-08T14:17:58.680Z,82.40
2022-11-08T14:21:24.476Z,82.40
2022-11-08T14:23:56.129Z,82.60
2022-11-08T14:26:27.780Z,82.60
2022-11-08T14:29:00.085Z,82.30
2022-11-08T14:31:35.818Z,82.50
2022-11-08T14:34:33.370Z,82.70
2022-11-08T14:37:01.753Z,82.60
2022-11-08T14:39:34.675Z,82.80
2022-11-08T14:42:05.550Z,83.00
2022-11-08T14:44:34.896Z,83.20
2022-11-08T14:47:01.860Z,83.10
2022-11-08T14:49:38.410Z,82.90
2022-11-08T14:52:16.229Z,82.90
2022-11-08T14:54:49.116Z,83.10
2022-11-08T14:57:42.474Z,82.30
2022-11-08T15:00:27.137Z,82.50
2022-11-08T15:03:05.352Z,82.70
2022-11-08T15:05:42.634Z,82.70
2022-11-08T15:08:44.310Z,83.00
2022-11-08T15:11:29.127Z,83.20
2022-11-08T15:14:19.661Z,83.40
2022-11-08T15:18:16.424Z,83.30
2022-11-08T15:22:14.702Z,83.40
2022-11-08T15:25:02.077Z,83.50
2022-11-08T15:27:30.356Z,83.70
2022-11-08T15:30:11.308Z,83.90
2022-11-08T15:32:43.937Z,84.00
2022-11-08T15:35:38.248Z,84.00
2022-11-08T15:38:23.697Z,84.20
2022-11-08T15:40:52.858Z,84.20
2022-11-08T15:43:32.084Z,84.30
2022-11-08T15:46:04.579Z,84.20
2022-11-08T15:48:32.008Z,84.40
2022-11-08T15:50:59.467Z,84.40
2022-11-08T15:53:27.948Z,84.50
2022-11-08T15:56:41.918Z,84.50
2022-11-08T15:59:42.663Z,84.50
2022-11-08T16:06:15.440Z,84.60
2022-11-08T16:08:51.153Z,84.60
2022-11-08T16:11:38.814Z,84.60
2022-11-08T16:14:55.243Z,84.70
2022-11-08T16:17:23.404Z,84.80
2022-11-08T16:20:14.518Z,85.10
2022-11-08T16:26:29.696Z,85.40
2022-11-08T16:28:57.115Z,85.60
2022-11-08T16:31:28.094Z,85.90
2022-11-08T16:34:11.834Z,86.10
2022-11-08T16:37:13.982Z,86.20
2022-11-08T16:43:47.188Z,86.40
2022-11-08T16:46:45.278Z,86.60
2022-11-08T16:49:51.739Z,86.60
2022-11-08T16:57:33.175Z,86.50
2022-11-08T16:59:56.248Z,87.00
2022-11-08T17:02:30.818Z,87.30
2022-11-08T17:04:59.624Z,87.40
2022-11-08T17:07:28.188Z,87.60
2022-11-08T17:09:55.359Z,87.70
2022-11-08T17:12:25.624Z,87.80
2022-11-08T17:14:53.204Z,87.90
2022-11-08T17:17:20.323Z,87.90
2022-11-08T17:19:47.308Z,87.90
2022-11-08T17:22:14.361Z,88.00
2022-11-08T17:24:41.653Z,88.10
2022-11-08T17:27:11.203Z,88.60
2022-11-08T17:29:38.355Z,87.90
2022-11-08T17:32:06.534Z,87.80
2022-11-08T17:34:33.758Z,87.70
2022-11-08T17:37:07.335Z,87.80
2022-11-08T17:39:34.337Z,87.70
2022-11-08T17:42:03.911Z,87.70
2022-11-08T17:44:33.449Z,87.60
2022-11-08T17:47:00.685Z,87.60
2022-11-08T17:49:27.840Z,87.60
2022-11-08T17:51:55.258Z,87.60
2022-11-08T17:54:32.947Z,87.70
2022-11-08T17:57:00.685Z,87.80
2022-11-08T18:04:30.260Z,87.90
2022-11-08T18:05:55.357Z,88.20
2022-11-08T18:08:26.863Z,88.40
2022-11-08T18:11:43.467Z,88.50
2022-11-08T18:18:57.121Z,88.80
2022-11-08T18:21:27.640Z,88.90
2022-11-08T18:23:54.720Z,89.10
2022-11-08T18:26:23.787Z,89.20
2022-11-08T18:28:55.640Z,89.10
2022-11-08T18:31:23.305Z,89.10
2022-11-08T18:33:50.675Z,89.10
2022-11-08T18:36:37.573Z,89.10
2022-11-08T18:39:04.807Z,89.00
2022-11-08T18:41:35.486Z,89.10
2022-11-08T18:44:22.466Z,89.10
2022-11-08T18:46:52.568Z,89.10
2022-11-08T18:49:19.991Z,89.20
2022-11-08T18:51:52.710Z,89.20
2022-11-08T18:54:20.332Z,89.20
2022-11-08T18:56:47.654Z,89.10
2022-11-08T18:59:14.920Z,89.00
2022-11-08T19:05:56.783Z,88.60
2022-11-08T19:08:39.014Z,88.80
2022-11-08T19:11:22.443Z,88.90
2022-11-08T19:14:03.499Z,88.90
2022-11-08T19:16:36.875Z,89.00
2022-11-08T19:19:08.581Z,89.20
2022-11-08T19:21:36.769Z,89.30
2022-11-08T19:24:10.900Z,89.30
2022-11-08T19:26:42.107Z,89.40
2022-11-08T19:29:14.415Z,89.50
2022-11-08T19:31:46.946Z,89.60
2022-11-08T19:34:14.309Z,89.70
2022-11-08T19:36:44.813Z,89.90
2022-11-08T19:39:23.976Z,89.90
2022-11-08T19:42:01.470Z,89.90
2022-11-08T19:44:33.771Z,90.00
2022-11-08T19:47:00.968Z,90.00
2022-11-08T19:49:30.813Z,90.00
2022-11-08T19:51:57.968Z,90.00
2022-11-08T19:54:25.249Z,90.00
2022-11-08T19:57:07.737Z,90.00
2022-11-08T20:03:23.150Z,90.00
2022-11-08T20:05:54.155Z,90.10
2022-11-08T20:08:39.932Z,90.10
2022-11-08T20:11:20.889Z,90.00
2022-11-08T20:13:51.189Z,90.10
2022-11-08T20:16:21.466Z,90.10
2022-11-08T20:19:29.405Z,90.10
2022-11-08T20:21:57.509Z,90.10
2022-11-08T20:24:35.474Z,90.10
2022-11-08T20:27:08.397Z,90.10
2022-11-08T20:29:35.497Z,90.10
2022-11-08T20:32:05.360Z,90.10
2022-11-08T20:34:35.296Z,90.00
2022-11-08T20:37:03.553Z,90.00
2022-11-08T20:39:30.970Z,89.80
2022-11-08T20:41:59.008Z,89.80
2022-11-08T20:44:29.782Z,89.60
2022-11-08T20:46:57.018Z,89.60
2022-11-08T20:49:24.046Z,89.50
2022-11-08T20:51:51.212Z,89.40
2022-11-08T20:54:22.318Z,89.30
2022-11-08T20:56:49.510Z,89.30
2022-11-08T20:59:16.721Z,89.20
2022-11-08T21:01:51.612Z,89.20
2022-11-08T21:04:24.043Z,89.20
2022-11-08T21:07:59.287Z,89.30
2022-11-08T21:09:50.590Z,89.30
2022-11-08T21:12:19.141Z,89.20
2022-11-08T21:14:46.249Z,89.10
2022-11-08T21:17:22.042Z,89.20
2022-11-08T21:19:54.525Z,89.20
2022-11-08T21:22:30.189Z,89.20
2022-11-08T21:24:57.533Z,89.20
2022-11-08T21:27:29.387Z,89.20
2022-11-08T21:30:00.088Z,89.20
2022-11-08T21:32:34.854Z,89.20
2022-11-08T21:35:20.283Z,89.30
2022-11-08T21:37:47.642Z,89.50
2022-11-08T21:40:14.675Z,89.60
2022-11-08T21:42:47.516Z,89.70
2022-11-08T21:45:16.190Z,89.80
2022-11-08T21:47:43.123Z,89.80
2022-11-08T21:50:13.069Z,90.00
2022-11-08T21:52:40.672Z,90.00
2022-11-08T21:55:08.328Z,90.00
2022-11-08T21:57:42.078Z,90.10
2022-11-08T22:00:11.826Z,90.10
2022-11-08T22:02:40.868Z,90.10
2022-11-08T22:05:13.224Z,90.10
2022-11-08T22:07:40.477Z,90.20
2022-11-08T22:10:08.447Z,90.30
2022-11-08T22:12:35.475Z,90.20
2022-11-08T22:15:03.789Z,90.30
2022-11-08T22:17:31.033Z,90.30
2022-11-08T22:19:59.094Z,90.40
2022-11-08T22:22:26.374Z,90.40
2022-11-08T22:24:58.024Z,90.50
2022-11-08T22:27:35.457Z,90.50
2022-11-08T22:30:05.678Z,90.50
2022-11-08T22:32:35.522Z,90.60
2022-11-08T22:35:04.167Z,90.60
2022-11-08T22:40:16.396Z,90.60
2022-11-08T22:42:43.524Z,90.70
2022-11-08T22:45:12.778Z,90.70
2022-11-08T22:47:39.921Z,90.80
2022-11-08T22:50:07.296Z,90.80
2022-11-08T22:52:34.355Z,90.90
2022-11-08T22:55:04.063Z,90.80
2022-11-08T22:57:33.381Z,90.90
2022-11-08T23:00:00.365Z,90.90
2022-11-08T23:02:32.725Z,90.90
2022-11-08T23:05:00.215Z,90.90
2022-11-08T23:07:30.268Z,91.00
2022-11-08T23:09:57.501Z,91.00
2022-11-08T23:12:44.312Z,91.00
2022-11-08T23:15:55.488Z,91.00
2022-11-08T23:18:24.892Z,91.10
2022-11-08T23:21:19.350Z,91.10
2022-11-08T23:24:04.776Z,91.10
2022-11-08T23:27:21.789Z,91.10
2022-11-08T23:30:07.391Z,91.20
2022-11-08T23:32:35.464Z,91.20
2022-11-08T23:35:05.297Z,91.30
2022-11-08T23:37:36.390Z,91.20
2022-11-08T23:40:27.826Z,91.20
2022-11-08T23:43:37.752Z,91.20
2022-11-08T23:46:13.570Z,91.30
2022-11-08T23:49:30.295Z,91.20
2022-11-08T23:51:57.433Z,91.20
2022-11-08T23:54:24.402Z,91.30
2022-11-08T23:56:52.387Z,91.10
2022-11-08T23:59:19.313Z,91.20
